Time;durP1;ratioP1;P1;durP2;ratioP2;P2;SDS_P1;SDS_P2;PMS_P1;PMS_P2;Temp;Humidity;BMP_temperature;BMP_pressure;BME280_temperature;BME280_humidity;BME280_pressure;Samples;Min_cycle;Max_cycle;Signal;HPM_P1;HPM_P2
2022/12/25 00:00:07;;;;;;;;;;;3.50;80.90;;;;;;5044287;28;87169;-40
2022/12/25 00:02:32;;;;;;;;;;;3.50;80.90;;;;;;5045336;28;87835;-40
2022/12/25 00:04:58;;;;;;;;;;;3.50;80.90;;;;;;5047283;28;88201;-40
2022/12/25 00:07:23;;;;;;;;;;;3.50;81.00;;;;;;5044348;28;87352;-40
2022/12/25 00:09:49;;;;;;;;;;;3.50;81.10;;;;;;5043628;28;88285;-40
2022/12/25 00:12:14;;;;;;;;;;;3.50;80.90;;;;;;5044363;28;87123;-41
2022/12/25 00:14:40;;;;;;;;;;;3.50;81.00;;;;;;5044619;28;87480;-40
2022/12/25 00:17:05;;;;;;;;;;;3.50;80.80;;;;;;5043978;28;88076;-40
2022/12/25 00:19:31;;;;;;;;;;;3.50;80.90;;;;;;5044443;28;87226;-40
2022/12/25 00:21:56;;;;;;;;;;;3.50;81.20;;;;;;5043941;28;87222;-40
2022/12/25 00:24:22;;;;;;;;;;;3.50;81.00;;;;;;5043542;28;88393;-40
2022/12/25 00:26:47;;;;;;;;;;;3.50;80.90;;;;;;5047670;28;86392;-40
2022/12/25 00:29:13;;;;;;;;;;;3.50;80.90;;;;;;5043933;28;88103;-40
2022/12/25 00:31:39;;;;;;;;;;;3.50;80.90;;;;;;5044120;28;87026;-40
2022/12/25 00:34:04;;;;;;;;;;;3.50;80.80;;;;;;5043487;27;89069;-40
2022/12/25 00:36:30;;;;;;;;;;;3.50;80.80;;;;;;5043823;28;87949;-40
2022/12/25 00:38:55;;;;;;;;;;;3.50;80.90;;;;;;5043982;28;87122;-40
2022/12/25 00:42:17;;;;;;;;;;;3.50;80.80;;;;;;5043415;28;87541;-40
2022/12/25 00:44:08;;;;;;;;;;;3.50;80.70;;;;;;5042570;28;88815;-40
2022/12/25 00:46:34;;;;;;;;;;;3.50;80.90;;;;;;5043910;28;87144;-40
2022/12/25 00:49:00;;;;;;;;;;;3.50;80.80;;;;;;5046505;27;87412;-40
2022/12/25 00:51:25;;;;;;;;;;;3.50;80.70;;;;;;5044195;28;87611;-40
2022/12/25 00:53:51;;;;;;;;;;;3.50;80.80;;;;;;5043859;28;87061;-40
2022/12/25 00:56:16;;;;;;;;;;;3.50;80.80;;;;;;5043609;28;88212;-40
2022/12/25 00:58:42;;;;;;;;;;;3.50;80.80;;;;;;5043145;28;88074;-40
2022/12/25 01:01:09;;;;;;;;;;;3.50;80.80;;;;;;5043445;28;89931;-41
2022/12/25 01:03:34;;;;;;;;;;;3.50;80.60;;;;;;5043388;28;87297;-40
2022/12/25 01:06:01;;;;;;;;;;;3.50;80.70;;;;;;5043423;28;87236;-40
2022/12/25 01:08:31;;;;;;;;;;;3.50;80.70;;;;;;5046021;28;87859;-40
2022/12/25 01:10:58;;;;;;;;;;;3.50;80.80;;;;;;5043286;28;87164;-40
2022/12/25 01:13:24;;;;;;;;;;;3.50;80.70;;;;;;5043298;28;87515;-40
2022/12/25 01:15:53;;;;;;;;;;;3.50;80.80;;;;;;5043511;28;86587;-40
2022/12/25 01:18:19;;;;;;;;;;;3.50;80.80;;;;;;5043164;28;87114;-40
2022/12/25 01:20:45;;;;;;;;;;;3.50;80.70;;;;;;5043296;28;86902;-40
2022/12/25 01:23:10;;;;;;;;;;;3.50;80.70;;;;;;5042347;28;88998;-41
2022/12/25 01:25:36;;;;;;;;;;;3.40;80.70;;;;;;5043351;28;86953;-40
2022/12/25 01:28:01;;;;;;;;;;;3.40;80.70;;;;;;5043378;28;87471;-40
2022/12/25 01:30:27;;;;;;;;;;;3.50;80.90;;;;;;5045980;28;88272;-40
2022/12/25 01:32:52;;;;;;;;;;;3.50;80.80;;;;;;5043235;28;87248;-41
2022/12/25 01:35:18;;;;;;;;;;;3.50;80.90;;;;;;5042467;28;87261;-40
2022/12/25 01:37:43;;;;;;;;;;;3.50;80.90;;;;;;5043125;28;87228;-40
2022/12/25 01:40:10;;;;;;;;;;;3.40;80.90;;;;;;5043529;28;87469;-40
2022/12/25 01:42:35;;;;;;;;;;;3.40;81.00;;;;;;5042605;28;88202;-40
2022/12/25 01:45:13;;;;;;;;;;;3.40;81.20;;;;;;5043036;28;87001;-40
2022/12/25 01:47:38;;;;;;;;;;;3.40;81.10;;;;;;5042438;28;87872;-40
2022/12/25 01:50:04;;;;;;;;;;;3.40;81.10;;;;;;5042771;28;89250;-41
2022/12/25 01:52:30;;;;;;;;;;;3.50;80.90;;;;;;5045845;28;87125;-40
2022/12/25 01:55:02;;;;;;;;;;;3.50;81.00;;;;;;5041423;28;89453;-40
2022/12/25 01:57:29;;;;;;;;;;;3.50;80.90;;;;;;5042467;28;87035;-40
2022/12/25 01:59:56;;;;;;;;;;;3.50;80.80;;;;;;5042868;28;87569;-40
2022/12/25 02:02:22;;;;;;;;;;;3.50;80.80;;;;;;5042134;28;88039;-40
2022/12/25 02:05:08;;;;;;;;;;;3.50;80.80;;;;;;5043390;28;86251;-40
2022/12/25 02:07:34;;;;;;;;;;;3.50;80.70;;;;;;5041773;28;88578;-40
2022/12/25 02:10:00;;;;;;;;;;;3.50;80.80;;;;;;5042320;28;89464;-40
2022/12/25 02:12:27;;;;;;;;;;;3.50;80.80;;;;;;5041729;28;88051;-40
2022/12/25 02:14:54;;;;;;;;;;;3.50;80.70;;;;;;5044767;28;88428;-40
2022/12/25 02:17:43;;;;;;;;;;;3.50;80.70;;;;;;5042490;28;87169;-40
2022/12/25 02:20:27;;;;;;;;;;;3.50;80.60;;;;;;4995084;28;87151;-40
2022/12/25 02:23:15;;;;;;;;;;;3.50;80.70;;;;;;5042159;28;88001;-40
2022/12/25 02:25:51;;;;;;;;;;;3.50;80.60;;;;;;4994242;28;87116;-40
2022/12/25 02:28:19;;;;;;;;;;;3.50;80.50;;;;;;5042776;28;87437;-40
2022/12/25 02:30:47;;;;;;;;;;;3.50;80.60;;;;;;5042657;28;86489;-40
2022/12/25 02:36:02;;;;;;;;;;;3.50;80.50;;;;;;5042247;28;87724;-40
2022/12/25 02:38:31;;;;;;;;;;;3.50;80.60;;;;;;5044177;28;88768;-40
2022/12/25 02:41:00;;;;;;;;;;;3.50;80.60;;;;;;5041875;28;87601;-40
2022/12/25 03:08:29;;;;;;;;;;;3.50;80.50;;;;;;5045333;28;87022;-40
2022/12/25 03:13:44;;;;;;;;;;;3.40;80.40;;;;;;5045239;28;87287;-40
2022/12/25 03:18:54;;;;;;;;;;;3.40;80.50;;;;;;5045620;28;86999;-40
2022/12/25 03:26:54;;;;;;;;;;;3.40;80.30;;;;;;5044813;28;87133;-40
2022/12/25 03:32:11;;;;;;;;;;;3.50;80.40;;;;;;5044517;28;88065;-40
2022/12/25 04:38:13;;;;;;;;;;;3.30;80.50;;;;;;5045518;28;87027;-40
2022/12/25 04:40:38;;;;;;;;;;;3.30;80.50;;;;;;5043530;28;88340;-40
2022/12/25 04:43:04;;;;;;;;;;;3.30;80.50;;;;;;5044009;28;87116;-40
2022/12/25 04:45:29;;;;;;;;;;;3.30;80.50;;;;;;5044205;28;87361;-40
2022/12/25 04:47:57;;;;;;;;;;;3.30;80.60;;;;;;5043622;28;88191;-40
2022/12/25 04:50:23;;;;;;;;;;;3.30;80.60;;;;;;5043707;27;87132;-40
2022/12/25 04:52:49;;;;;;;;;;;3.20;80.60;;;;;;5043251;28;87957;-40
2022/12/25 04:55:14;;;;;;;;;;;3.30;80.70;;;;;;5043442;28;88350;-40
2022/12/25 04:57:40;;;;;;;;;;;3.20;80.60;;;;;;5043692;28;87134;-40
2022/12/25 05:00:06;;;;;;;;;;;3.30;80.50;;;;;;5046284;28;87315;-40
2022/12/25 05:02:31;;;;;;;;;;;3.30;80.40;;;;;;5044002;28;87259;-40
2022/12/25 05:04:57;;;;;;;;;;;3.20;80.50;;;;;;5043799;28;87331;-40
2022/12/25 05:07:22;;;;;;;;;;;3.30;80.50;;;;;;5043290;28;88157;-40
2022/12/25 05:09:48;;;;;;;;;;;3.20;80.60;;;;;;5044203;28;86747;-40
2022/12/25 05:12:13;;;;;;;;;;;3.20;80.50;;;;;;5043589;28;87016;-40
2022/12/25 05:14:40;;;;;;;;;;;3.20;81.00;;;;;;5043185;28;88131;-40
2022/12/25 05:17:06;;;;;;;;;;;3.20;80.40;;;;;;5042440;28;88071;-40
2022/12/25 05:19:32;;;;;;;;;;;3.20;80.50;;;;;;5045923;28;88420;-40
2022/12/25 05:21:57;;;;;;;;;;;3.30;80.30;;;;;;5043541;28;88061;-40
2022/12/25 05:24:26;;;;;;;;;;;3.30;80.30;;;;;;5043117;28;89384;-40
2022/12/25 05:26:52;;;;;;;;;;;3.20;80.40;;;;;;5042442;28;88302;-40
2022/12/25 05:29:17;;;;;;;;;;;3.20;80.50;;;;;;5041895;27;87018;-40
2022/12/25 05:31:43;;;;;;;;;;;3.20;80.30;;;;;;5043375;28;87373;-40
2022/12/25 05:34:08;;;;;;;;;;;3.20;80.20;;;;;;5043353;28;87346;-40
2022/12/25 05:36:34;;;;;;;;;;;3.20;80.40;;;;;;5043115;28;87109;-40
2022/12/25 05:38:59;;;;;;;;;;;3.20;80.20;;;;;;5043156;28;87437;-40
2022/12/25 05:41:25;;;;;;;;;;;3.20;80.40;;;;;;5044409;28;89047;-40
2022/12/25 05:43:51;;;;;;;;;;;3.30;80.20;;;;;;5043105;28;88266;-40
2022/12/25 05:46:16;;;;;;;;;;;3.20;80.30;;;;;;5042776;28;87181;-40
2022/12/25 05:48:42;;;;;;;;;;;3.20;80.20;;;;;;5043049;28;86902;-40
2022/12/25 05:51:11;;;;;;;;;;;3.20;80.20;;;;;;5043063;28;87402;-40
2022/12/25 05:53:37;;;;;;;;;;;3.20;80.40;;;;;;5042342;28;87863;-40
2022/12/25 05:56:05;;;;;;;;;;;3.20;80.30;;;;;;5042929;28;87121;-40
2022/12/25 05:58:31;;;;;;;;;;;3.20;80.20;;;;;;5043033;28;89594;-40
2022/12/25 06:00:57;;;;;;;;;;;3.20;80.20;;;;;;5042358;28;88091;-40
2022/12/25 06:03:22;;;;;;;;;;;3.20;80.20;;;;;;5045811;28;87189;-40
2022/12/25 06:05:48;;;;;;;;;;;3.20;80.20;;;;;;5023420;28;92196;-40
2022/12/25 06:08:13;;;;;;;;;;;3.20;80.20;;;;;;5042803;28;87126;-40
2022/12/25 06:10:39;;;;;;;;;;;3.20;80.00;;;;;;5042811;28;87512;-40
2022/12/25 06:13:05;;;;;;;;;;;3.20;80.10;;;;;;5042395;28;88170;-40
2022/12/25 06:15:30;;;;;;;;;;;3.20;80.20;;;;;;5042430;28;87149;-40
2022/12/25 06:17:58;;;;;;;;;;;3.20;80.10;;;;;;5042840;28;87333;-40
2022/12/25 06:20:23;;;;;;;;;;;3.20;80.20;;;;;;5042171;28;88125;-40
2022/12/25 06:22:49;;;;;;;;;;;3.20;80.20;;;;;;5043033;28;86370;-40
2022/12/25 06:25:14;;;;;;;;;;;3.20;80.20;;;;;;5045006;28;86828;-40
2022/12/25 06:27:40;;;;;;;;;;;3.20;80.30;;;;;;5042234;28;87235;-40
2022/12/25 06:30:06;;;;;;;;;;;3.10;80.30;;;;;;5041735;28;88452;-41
2022/12/25 06:32:31;;;;;;;;;;;3.20;80.30;;;;;;5041973;28;88468;-40
2022/12/25 06:34:57;;;;;;;;;;;3.20;80.10;;;;;;5024282;28;87135;-40
2022/12/25 06:37:22;;;;;;;;;;;3.20;80.10;;;;;;5042337;28;87490;-40
2022/12/25 06:39:48;;;;;;;;;;;3.20;80.20;;;;;;5041840;28;88064;-40
2022/12/25 06:42:13;;;;;;;;;;;3.20;80.10;;;;;;5045041;28;87186;-40
2022/12/25 06:44:39;;;;;;;;;;;3.20;80.10;;;;;;5045692;28;87066;-40
2022/12/25 06:47:04;;;;;;;;;;;3.20;80.00;;;;;;5048563;28;88792;-40
2022/12/25 06:49:30;;;;;;;;;;;3.20;80.00;;;;;;5045911;28;87003;-40
2022/12/25 06:51:55;;;;;;;;;;;3.20;79.90;;;;;;5045369;27;88409;-40
2022/12/25 06:54:21;;;;;;;;;;;3.20;80.00;;;;;;5044842;28;88113;-40
2022/12/25 06:56:47;;;;;;;;;;;3.20;79.90;;;;;;5027213;28;90227;-40
2022/12/25 06:59:13;;;;;;;;;;;3.20;79.90;;;;;;5045176;28;87967;-40
2022/12/25 07:01:43;;;;;;;;;;;3.20;79.90;;;;;;5045630;28;87069;-40
2022/12/25 07:04:12;;;;;;;;;;;3.20;80.50;;;;;;5045779;28;87476;-40
2022/12/25 07:06:37;;;;;;;;;;;3.20;79.90;;;;;;5045076;28;88008;-40
2022/12/25 07:09:03;;;;;;;;;;;3.20;80.00;;;;;;5048595;28;86952;-40
2022/12/25 07:11:28;;;;;;;;;;;3.20;79.90;;;;;;5045445;28;87073;-40
2022/12/25 07:13:54;;;;;;;;;;;3.20;79.90;;;;;;5045351;28;87032;-40
2022/12/25 07:16:19;;;;;;;;;;;3.20;80.00;;;;;;5045378;28;87105;-40
2022/12/25 07:18:45;;;;;;;;;;;3.10;79.90;;;;;;5044443;28;89061;-40
2022/12/25 07:21:14;;;;;;;;;;;3.10;79.90;;;;;;5045426;28;87134;-40
2022/12/25 07:23:40;;;;;;;;;;;3.20;79.90;;;;;;5045275;28;87341;-40
2022/12/25 07:26:06;;;;;;;;;;;3.10;79.90;;;;;;5044796;28;87864;-40
2022/12/25 07:28:32;;;;;;;;;;;3.20;80.00;;;;;;5047806;28;87178;-40
2022/12/25 07:31:05;;;;;;;;;;;3.10;79.90;;;;;;5044894;28;88069;-40
2022/12/25 07:33:30;;;;;;;;;;;3.10;79.90;;;;;;5045052;28;87173;-40
2022/12/25 07:35:56;;;;;;;;;;;3.10;79.90;;;;;;5045486;28;87281;-40
2022/12/25 07:38:22;;;;;;;;;;;3.10;79.90;;;;;;5044485;28;89412;-40
2022/12/25 07:40:47;;;;;;;;;;;3.10;79.80;;;;;;5044634;28;87074;-40
2022/12/25 07:43:13;;;;;;;;;;;3.20;79.80;;;;;;5044514;28;88101;-40
2022/12/25 07:45:38;;;;;;;;;;;3.20;79.80;;;;;;5044536;28;88059;-40
2022/12/25 07:48:04;;;;;;;;;;;3.20;79.80;;;;;;5044882;28;86751;-40
2022/12/25 07:50:30;;;;;;;;;;;3.10;79.70;;;;;;5047612;28;86972;-40
2022/12/25 07:52:55;;;;;;;;;;;3.10;79.90;;;;;;5043856;27;87031;-40
2022/12/25 07:55:21;;;;;;;;;;;3.20;79.80;;;;;;5044808;28;87357;-40
2022/12/25 07:57:46;;;;;;;;;;;3.20;79.80;;;;;;5044323;28;88323;-40
2022/12/25 08:00:12;;;;;;;;;;;3.20;79.80;;;;;;5045186;28;86445;-40
2022/12/25 08:02:38;;;;;;;;;;;3.20;79.80;;;;;;5044642;28;86976;-40
2022/12/25 08:05:03;;;;;;;;;;;3.10;79.70;;;;;;5044384;28;87431;-40
2022/12/25 08:07:29;;;;;;;;;;;3.10;79.70;;;;;;5043788;28;88370;-40
2022/12/25 08:09:54;;;;;;;;;;;3.20;79.80;;;;;;5044290;28;89782;-40
2022/12/25 08:12:20;;;;;;;;;;;3.20;79.80;;;;;;5046793;28;88254;-40
2022/12/25 08:14:45;;;;;;;;;;;3.20;79.80;;;;;;5044654;28;87423;-40
2022/12/25 08:17:11;;;;;;;;;;;3.20;79.80;;;;;;5044276;28;88179;-40
2022/12/25 08:19:36;;;;;;;;;;;3.20;79.90;;;;;;5044628;28;87028;-40
2022/12/25 08:22:02;;;;;;;;;;;3.20;79.80;;;;;;5044564;28;87340;-40
2022/12/25 08:24:27;;;;;;;;;;;3.20;79.80;;;;;;5044626;28;87150;-40
2022/12/25 08:26:53;;;;;;;;;;;3.20;79.80;;;;;;5044240;28;87418;-39
2022/12/25 08:29:18;;;;;;;;;;;3.20;79.80;;;;;;5044010;28;87469;-40
2022/12/25 08:31:44;;;;;;;;;;;3.20;79.80;;;;;;5043041;27;88838;-40
2022/12/25 08:34:09;;;;;;;;;;;3.20;79.80;;;;;;5047486;28;88123;-40
2022/12/25 08:36:35;;;;;;;;;;;3.20;79.70;;;;;;5043716;28;87684;-40
2022/12/25 08:39:01;;;;;;;;;;;3.20;79.70;;;;;;5044121;28;87161;-40
2022/12/25 08:41:27;;;;;;;;;;;3.20;79.80;;;;;;5043363;28;87581;-40
2022/12/25 08:43:53;;;;;;;;;;;3.20;79.70;;;;;;5043588;28;88133;-40
2022/12/25 08:46:18;;;;;;;;;;;3.30;79.80;;;;;;5043621;28;87144;-40
2022/12/25 08:48:45;;;;;;;;;;;3.30;79.70;;;;;;5044567;28;86516;-40
2022/12/25 08:51:13;;;;;;;;;;;3.20;79.80;;;;;;5043452;28;87049;-40
2022/12/25 08:53:39;;;;;;;;;;;3.20;79.80;;;;;;5043696;28;87032;-40
2022/12/25 08:56:05;;;;;;;;;;;3.20;79.80;;;;;;5045750;28;88473;-40
2022/12/25 08:58:31;;;;;;;;;;;3.20;79.80;;;;;;5043306;28;87166;-40
2022/12/25 09:00:56;;;;;;;;;;;3.20;79.80;;;;;;5044021;28;87360;-40
2022/12/25 09:03:22;;;;;;;;;;;3.20;79.70;;;;;;5043033;28;89493;-40
2022/12/25 09:05:47;;;;;;;;;;;3.30;79.60;;;;;;5043314;28;87095;-40
2022/12/25 09:08:13;;;;;;;;;;;3.30;79.70;;;;;;5043588;28;87639;-40
2022/12/25 09:10:38;;;;;;;;;;;3.30;79.80;;;;;;5043221;28;88072;-40
2022/12/25 09:13:04;;;;;;;;;;;3.30;79.70;;;;;;5043851;27;86481;-40
2022/12/25 09:15:30;;;;;;;;;;;3.30;79.80;;;;;;5043639;28;86912;-40
2022/12/25 09:17:55;;;;;;;;;;;3.30;79.90;;;;;;5045942;28;87921;-40
2022/12/25 09:20:21;;;;;;;;;;;3.30;79.80;;;;;;5042958;28;88009;-40
2022/12/25 09:22:46;;;;;;;;;;;3.30;79.80;;;;;;5042983;28;88044;-40
2022/12/25 09:25:12;;;;;;;;;;;3.30;79.70;;;;;;5043376;28;87222;-40
2022/12/25 09:27:38;;;;;;;;;;;3.30;79.70;;;;;;5042975;28;87406;-40
2022/12/25 09:30:04;;;;;;;;;;;3.30;79.80;;;;;;5042965;28;87173;-40
2022/12/25 09:32:29;;;;;;;;;;;3.40;79.80;;;;;;5042741;28;87159;-39
2022/12/25 09:34:55;;;;;;;;;;;3.30;79.80;;;;;;5043099;28;87397;-40
2022/12/25 09:37:20;;;;;;;;;;;3.30;79.80;;;;;;5046059;28;87294;-40
2022/12/25 09:39:46;;;;;;;;;;;3.40;79.90;;;;;;5043137;28;86951;-40
2022/12/25 09:42:24;;;;;;;;;;;3.40;79.70;;;;;;5042064;28;87277;-40
2022/12/25 09:44:53;;;;;;;;;;;3.40;80.00;;;;;;5042345;28;88082;-40
2022/12/25 09:47:20;;;;;;;;;;;3.40;79.80;;;;;;5042742;28;88340;-40
2022/12/25 09:49:50;;;;;;;;;;;3.40;79.90;;;;;;5042511;28;88119;-40
2022/12/25 09:52:22;;;;;;;;;;;3.40;80.10;;;;;;5042610;28;87156;-40
2022/12/25 09:54:54;;;;;;;;;;;3.40;80.00;;;;;;5042936;28;87394;-40
2022/12/25 09:57:19;;;;;;;;;;;3.40;80.70;;;;;;5042385;28;89418;-40
2022/12/25 09:59:46;;;;;;;;;;;3.40;80.20;;;;;;5045503;28;87257;-40
2022/12/25 10:02:29;;;;;;;;;;;3.40;80.30;;;;;;5042902;28;86488;-40
2022/12/25 10:04:54;;;;;;;;;;;3.40;80.20;;;;;;5042826;28;86983;-39
2022/12/25 10:07:23;;;;;;;;;;;3.30;80.30;;;;;;5042580;28;87406;-40
2022/12/25 10:10:07;;;;;;;;;;;3.40;81.10;;;;;;5041761;28;88929;-39
2022/12/25 10:12:35;;;;;;;;;;;3.30;80.40;;;;;;5042783;28;87261;-40
2022/12/25 10:15:14;;;;;;;;;;;3.30;80.30;;;;;;5042069;28;87019;-40
2022/12/25 10:17:46;;;;;;;;;;;3.30;80.60;;;;;;5042492;28;88267;-40
2022/12/25 10:20:33;;;;;;;;;;;3.30;80.40;;;;;;5042668;28;87019;-40
2022/12/25 10:23:00;;;;;;;;;;;3.30;80.60;;;;;;5044998;28;88859;-40
2022/12/25 10:25:26;;;;;;;;;;;3.30;80.70;;;;;;5042378;28;86996;-39
2022/12/25 10:27:54;;;;;;;;;;;3.40;80.70;;;;;;5042548;28;88659;-40
2022/12/25 10:30:24;;;;;;;;;;;3.30;80.50;;;;;;5041907;28;87777;-39
2022/12/25 10:32:50;;;;;;;;;;;3.30;80.70;;;;;;5042074;28;87069;-40
2022/12/25 10:35:17;;;;;;;;;;;3.40;80.80;;;;;;5041808;28;87949;-40
2022/12/25 10:37:45;;;;;;;;;;;3.40;80.70;;;;;;5041770;28;88833;-39
2022/12/25 10:40:22;;;;;;;;;;;3.40;80.80;;;;;;5042463;28;86982;-40
2022/12/25 10:42:51;;;;;;;;;;;3.40;80.80;;;;;;5042210;28;87422;-40
2022/12/25 10:45:17;;;;;;;;;;;3.40;81.00;;;;;;5044674;28;88239;-40
2022/12/25 10:47:42;;;;;;;;;;;3.40;80.80;;;;;;5042343;28;86926;-40
2022/12/25 10:50:08;;;;;;;;;;;3.40;80.80;;;;;;5041640;28;89678;-40
2022/12/25 10:52:34;;;;;;;;;;;3.40;81.20;;;;;;5042742;28;86392;-40
2022/12/25 10:55:09;;;;;;;;;;;3.40;80.80;;;;;;5041963;28;88152;-40
2022/12/25 10:57:43;;;;;;;;;;;3.50;81.20;;;;;;5041639;28;88154;-40
2022/12/25 11:00:18;;;;;;;;;;;3.50;81.10;;;;;;5041425;28;87993;-40
2022/12/25 11:02:43;;;;;;;;;;;3.60;81.10;;;;;;5041931;28;89774;-40
2022/12/25 11:05:13;;;;;;;;;;;3.60;80.80;;;;;;5041626;28;87723;-40
2022/12/25 11:07:50;;;;;;;;;;;3.60;81.50;;;;;;5044696;28;87093;-39
2022/12/25 11:10:32;;;;;;;;;;;3.60;82.00;;;;;;5041975;28;87936;-40
2022/12/25 11:12:58;;;;;;;;;;;3.60;81.60;;;;;;5041671;28;87115;-40
2022/12/25 11:15:30;;;;;;;;;;;3.60;81.80;;;;;;5041750;28;88531;-40
2022/12/25 11:17:56;;;;;;;;;;;3.70;81.50;;;;;;5042195;28;87630;-39
2022/12/25 11:20:21;;;;;;;;;;;3.70;81.30;;;;;;5041805;28;87182;-40
2022/12/25 11:22:47;;;;;;;;;;;3.70;81.50;;;;;;5041447;28;87746;-40
2022/12/25 11:25:19;;;;;;;;;;;3.70;81.60;;;;;;5041030;28;88113;-40
2022/12/25 11:27:55;;;;;;;;;;;3.70;81.40;;;;;;5042324;27;87038;-40
2022/12/25 11:30:20;;;;;;;;;;;3.70;81.50;;;;;;5047772;28;87321;-40
2022/12/25 11:32:54;;;;;;;;;;;3.70;82.10;;;;;;5045204;28;87136;-40
2022/12/25 11:35:20;;;;;;;;;;;3.80;81.60;;;;;;5045034;28;87418;-40
2022/12/25 11:37:50;;;;;;;;;;;3.70;81.80;;;;;;5044824;28;88029;-40
2022/12/25 11:40:17;;;;;;;;;;;3.80;82.10;;;;;;5045168;28;87483;-40
2022/12/25 11:42:46;;;;;;;;;;;3.70;82.20;;;;;;5045268;28;87431;-40
2022/12/25 11:45:11;;;;;;;;;;;3.80;82.20;;;;;;5044527;28;88204;-40
2022/12/25 11:47:57;;;;;;;;;;;3.80;82.50;;;;;;5044817;28;87092;-40
2022/12/25 11:50:27;;;;;;;;;;;3.80;82.70;;;;;;5047119;28;88195;-40
2022/12/25 11:52:53;;;;;;;;;;;3.80;82.90;;;;;;5026735;28;88167;-40
2022/12/25 11:55:28;;;;;;;;;;;3.90;83.00;;;;;;5044981;28;87003;-41
2022/12/25 11:57:55;;;;;;;;;;;3.90;82.80;;;;;;5044726;28;87324;-40
2022/12/25 12:00:21;;;;;;;;;;;3.90;82.80;;;;;;5044435;28;87127;-40
2022/12/25 12:02:47;;;;;;;;;;;3.90;83.00;;;;;;5044847;28;87495;-40
2022/12/25 12:05:15;;;;;;;;;;;3.90;82.80;;;;;;5044154;28;88208;-40
2022/12/25 12:07:52;;;;;;;;;;;3.90;82.80;;;;;;5045089;28;86270;-40
2022/12/25 12:10:24;;;;;;;;;;;3.90;82.90;;;;;;5044705;28;87063;-40
2022/12/25 12:13:09;;;;;;;;;;;3.90;83.00;;;;;;5046699;28;88379;-40
2022/12/25 12:15:40;;;;;;;;;;;3.90;83.00;;;;;;5043905;28;88030;-40
2022/12/25 12:18:24;;;;;;;;;;;3.90;83.00;;;;;;5044261;28;88008;-40
2022/12/25 12:21:16;;;;;;;;;;;3.90;83.00;;;;;;5044394;28;87224;-40
2022/12/25 12:24:02;;;;;;;;;;;3.90;83.00;;;;;;5039195;28;88035;-40
2022/12/25 12:26:29;;;;;;;;;;;3.90;82.80;;;;;;5043479;28;89260;-40
2022/12/25 12:28:56;;;;;;;;;;;4.00;82.90;;;;;;5044314;28;87036;-40
2022/12/25 12:31:22;;;;;;;;;;;4.00;83.00;;;;;;5044209;28;86945;-40
2022/12/25 12:33:53;;;;;;;;;;;4.00;83.00;;;;;;5044219;28;87459;-40
2022/12/25 12:36:21;;;;;;;;;;;4.00;82.90;;;;;;5046862;28;87068;-40
2022/12/25 12:38:47;;;;;;;;;;;4.00;82.80;;;;;;5043059;27;89299;-40
2022/12/25 12:41:13;;;;;;;;;;;4.00;83.20;;;;;;5043154;28;88520;-40
2022/12/25 12:43:39;;;;;;;;;;;4.00;84.00;;;;;;5043803;28;89731;-40
2022/12/25 12:46:15;;;;;;;;;;;4.10;83.80;;;;;;5043308;28;89473;-40
2022/12/25 12:48:42;;;;;;;;;;;4.10;83.90;;;;;;5043899;27;87019;-40
2022/12/25 12:51:09;;;;;;;;;;;4.10;84.00;;;;;;5043720;28;87439;-40
2022/12/25 12:53:37;;;;;;;;;;;4.10;84.60;;;;;;5043253;28;88589;-40
2022/12/25 12:56:08;;;;;;;;;;;4.10;84.50;;;;;;5043700;28;87244;-40
2022/12/25 12:58:35;;;;;;;;;;;4.20;84.70;;;;;;5047020;28;87247;-40
2022/12/25 13:01:19;;;;;;;;;;;4.20;84.50;;;;;;5043302;28;87854;-40
2022/12/25 13:03:56;;;;;;;;;;;4.20;84.50;;;;;;5043707;28;87117;-40
2022/12/25 13:06:38;;;;;;;;;;;4.20;84.40;;;;;;5042798;27;88216;-40
2022/12/25 13:09:20;;;;;;;;;;;4.20;84.60;;;;;;5043710;28;87022;-40
2022/12/25 13:11:46;;;;;;;;;;;4.20;84.60;;;;;;5043505;28;87453;-40
2022/12/25 13:14:19;;;;;;;;;;;4.20;84.70;;;;;;5043363;28;87224;-40
2022/12/25 13:16:46;;;;;;;;;;;4.30;84.70;;;;;;5043454;28;87094;-40
2022/12/25 13:19:16;;;;;;;;;;;4.30;84.40;;;;;;5043384;28;88667;-40
2022/12/25 13:21:59;;;;;;;;;;;4.30;84.40;;;;;;5046201;28;87979;-40
2022/12/25 13:24:26;;;;;;;;;;;4.30;84.40;;;;;;5025618;28;90396;-40
2022/12/25 13:26:51;;;;;;;;;;;4.30;84.20;;;;;;5042723;28;89478;-40
2022/12/25 13:29:35;;;;;;;;;;;4.30;84.30;;;;;;5043517;28;87122;-40
2022/12/25 13:32:01;;;;;;;;;;;4.40;84.40;;;;;;5042419;28;87965;-40
2022/12/25 13:34:30;;;;;;;;;;;4.40;84.40;;;;;;5042655;28;88197;-40
2022/12/25 13:36:57;;;;;;;;;;;4.40;84.50;;;;;;5043027;28;87017;-40
2022/12/25 13:39:23;;;;;;;;;;;4.40;84.40;;;;;;5043574;28;87101;-40
2022/12/25 13:42:05;;;;;;;;;;;4.40;84.40;;;;;;5042400;28;88060;-40
2022/12/25 13:44:43;;;;;;;;;;;4.40;84.40;;;;;;5046044;28;86974;-40
2022/12/25 13:47:16;;;;;;;;;;;4.50;84.40;;;;;;5042443;28;89473;-40
2022/12/25 13:49:42;;;;;;;;;;;4.50;84.50;;;;;;5042849;27;86228;-40
2022/12/25 13:52:12;;;;;;;;;;;4.50;84.60;;;;;;5024227;28;88331;-40
2022/12/25 13:54:38;;;;;;;;;;;4.40;84.60;;;;;;5042569;28;87885;-40
2022/12/25 13:57:06;;;;;;;;;;;4.50;84.70;;;;;;5042256;28;87853;-40
2022/12/25 13:59:32;;;;;;;;;;;4.50;84.80;;;;;;5042684;28;88342;-41
2022/12/25 14:01:58;;;;;;;;;;;4.50;84.80;;;;;;5042407;28;88433;-40
2022/12/25 14:04:24;;;;;;;;;;;4.50;84.80;;;;;;5045680;28;87544;-40
2022/12/25 14:06:50;;;;;;;;;;;4.60;84.80;;;;;;5042495;28;88187;-40
2022/12/25 14:09:17;;;;;;;;;;;4.60;84.80;;;;;;5042738;28;87021;-40
2022/12/25 14:11:47;;;;;;;;;;;4.60;84.70;;;;;;5042629;28;87195;-40
2022/12/25 14:14:23;;;;;;;;;;;4.60;84.70;;;;;;5042656;28;87269;-40
2022/12/25 14:16:49;;;;;;;;;;;4.60;84.70;;;;;;5042444;28;87063;-40
2022/12/25 14:19:27;;;;;;;;;;;4.60;84.60;;;;;;5042349;28;87816;-40
2022/12/25 14:21:54;;;;;;;;;;;4.60;84.70;;;;;;5041551;28;88115;-40
2022/12/25 14:24:21;;;;;;;;;;;4.60;84.60;;;;;;5042610;28;87057;-40
2022/12/25 14:26:46;;;;;;;;;;;4.70;84.60;;;;;;5044628;28;87537;-40
2022/12/25 14:29:14;;;;;;;;;;;4.70;84.60;;;;;;5042614;28;87134;-40
2022/12/25 14:31:40;;;;;;;;;;;4.70;84.60;;;;;;5042008;28;87805;-40
2022/12/25 14:34:11;;;;;;;;;;;4.70;84.60;;;;;;5042193;28;88075;-40
2022/12/25 14:36:36;;;;;;;;;;;4.70;84.60;;;;;;5042452;28;86979;-41
2022/12/25 14:39:05;;;;;;;;;;;4.70;84.50;;;;;;5042828;28;87382;-41
2022/12/25 14:41:38;;;;;;;;;;;4.70;84.50;;;;;;5041112;28;87131;-41
2022/12/25 14:44:24;;;;;;;;;;;4.70;84.40;;;;;;5042120;28;87083;-40
2022/12/25 14:46:49;;;;;;;;;;;4.70;84.50;;;;;;5023971;28;88534;-41
2022/12/25 14:49:21;;;;;;;;;;;4.70;84.40;;;;;;5044972;28;88028;-40
2022/12/25 14:51:47;;;;;;;;;;;4.70;84.40;;;;;;5041578;28;86987;-40
2022/12/25 14:54:14;;;;;;;;;;;4.70;84.40;;;;;;5041844;28;88050;-40
2022/12/25 14:56:40;;;;;;;;;;;4.80;84.40;;;;;;5041982;28;87087;-41
2022/12/25 14:59:09;;;;;;;;;;;4.80;84.40;;;;;;5042216;28;87370;-40
2022/12/25 15:01:36;;;;;;;;;;;4.80;84.40;;;;;;5041956;27;89518;-40
2022/12/25 15:04:22;;;;;;;;;;;4.80;84.50;;;;;;5045871;28;86289;-40
2022/12/25 15:06:51;;;;;;;;;;;4.80;84.40;;;;;;5045206;28;86989;-40
2022/12/25 15:09:17;;;;;;;;;;;4.80;84.50;;;;;;5045140;28;88004;-40
2022/12/25 15:11:47;;;;;;;;;;;4.80;84.60;;;;;;5047572;28;88044;-40
2022/12/25 15:14:12;;;;;;;;;;;4.80;84.70;;;;;;5044957;28;89799;-40
2022/12/25 15:16:43;;;;;;;;;;;4.80;84.60;;;;;;5045314;27;87044;-40
2022/12/25 15:19:09;;;;;;;;;;;4.80;84.70;;;;;;5045298;28;87288;-41
2022/12/25 15:21:35;;;;;;;;;;;4.80;84.60;;;;;;5044980;28;88202;-40
2022/12/25 15:24:01;;;;;;;;;;;4.80;84.60;;;;;;5045472;28;87054;-41
2022/12/25 15:26:27;;;;;;;;;;;4.80;84.60;;;;;;5045308;28;87580;-41
2022/12/25 15:28:52;;;;;;;;;;;4.80;84.50;;;;;;5026975;28;87828;-41
2022/12/25 15:31:20;;;;;;;;;;;4.80;84.40;;;;;;5045196;28;87120;-41
2022/12/25 15:33:46;;;;;;;;;;;4.80;84.40;;;;;;5047432;28;88695;-41
2022/12/25 15:36:12;;;;;;;;;;;4.90;84.40;;;;;;5044524;28;88078;-41
2022/12/25 15:38:38;;;;;;;;;;;4.80;84.20;;;;;;5045103;28;87434;-41
2022/12/25 15:41:08;;;;;;;;;;;4.90;84.20;;;;;;5044440;28;88009;-41
2022/12/25 15:43:33;;;;;;;;;;;4.90;84.00;;;;;;5044773;28;87157;-40
2022/12/25 15:45:59;;;;;;;;;;;4.90;84.00;;;;;;5045025;28;87434;-40
2022/12/25 15:48:24;;;;;;;;;;;4.90;84.00;;;;;;5044279;28;88082;-40
2022/12/25 15:50:49;;;;;;;;;;;4.90;83.80;;;;;;5044750;28;87531;-40
2022/12/25 15:53:15;;;;;;;;;;;4.90;83.80;;;;;;5047849;27;87355;-40
2022/12/25 15:55:40;;;;;;;;;;;4.90;83.60;;;;;;5044885;28;87136;-40
2022/12/25 15:58:09;;;;;;;;;;;4.90;83.60;;;;;;5044932;28;87669;-41
2022/12/25 16:00:35;;;;;;;;;;;4.90;83.60;;;;;;5043420;28;88991;-41
2022/12/25 16:03:00;;;;;;;;;;;4.90;83.50;;;;;;5044549;28;87127;-41
2022/12/25 16:05:26;;;;;;;;;;;5.00;84.10;;;;;;5044747;28;87367;-41
2022/12/25 16:07:52;;;;;;;;;;;4.90;83.50;;;;;;5044270;28;87695;-41
2022/12/25 16:10:18;;;;;;;;;;;4.90;83.40;;;;;;5044644;27;87272;-40
2022/12/25 16:12:43;;;;;;;;;;;5.00;84.00;;;;;;5044044;28;87587;-41
2022/12/25 16:15:10;;;;;;;;;;;5.00;83.40;;;;;;5046514;28;87757;-41
2022/12/25 16:17:35;;;;;;;;;;;5.00;83.20;;;;;;5044744;28;87303;-41
2022/12/25 16:20:01;;;;;;;;;;;5.00;83.10;;;;;;5044420;28;88115;-41